Slide Mountain Weather observations

Data are for 10 minute period ending at time listed.
 Day   Time   Solar   Ave.   Ave.  Ave.  Vector  Max.    Baro.  
  of    of     Rad.   Air    Rel.  Wind   Wind   Wind   Press.  
Year   Day            Temp.  Hum.  Speed  Dir.   Gust           
2026   (PST)  Kw/m2    F      %     mph   deg.    mph     mb.   
-----------------------------------------------------------------
 125   11:30   0.70   34.1   100   21.3    38     33.7    709.7 
 125   11:40   0.41   34.3   100   17.8    30     24.6    709.9 
 125   11:50   0.80   34.4   100   21.6    30     28.6    710.0 
 125   12:00   0.78   34.9   100   21.2    29     30.7    709.9 
 125   12:10   0.74   35.3   100   19.8    38     26.7    710.0 
 125   12:20   0.56   35.5   100   19.0    38     29.4    710.0 
 125   12:30   0.53   35.5    99   21.1    33     34.5    710.0 
 125   12:40   0.68   36.0    98   20.7    32     28.5    710.1 
 125   12:50   0.81   36.1    94   23.0    35     30.2    710.2 
 125   13:00   0.60   36.8    95   16.5    37     29.3    710.3 
 125   13:10   0.68   37.3    95   14.8    27     25.4    710.3 
 125   13:20   0.70   37.0    92   18.0    23     26.9    710.4 
 125   13:30   0.72   37.7    87   17.6    27     31.6    710.3 
 125   13:40   0.72   37.8    85   17.0    22     26.2    710.3 
 125   13:50   0.81   38.3    83   16.1    22     23.5    710.4 
 125   14:00   0.50   39.3    86   12.7    14     23.2    710.4 
 125   14:10   0.80   39.6    81   15.4    14     26.9    710.4 
 125   14:20   0.64   39.6    79   14.3    10     25.4    710.4 
 125   14:30   0.52   39.8    80   12.6    13     21.8    710.4 
 125   14:40   0.63   40.3    75   13.4     0     23.1    710.3 
 125   14:50   0.60   40.3    75   15.7     9     26.8    710.3 
 125   15:00   0.48   40.4    77   13.6     6     21.0    710.4 
 125   15:10   0.54   41.1    70   10.9   354     21.3    710.4 
 125   15:20   0.55   42.0    68   11.2   344     22.6    710.5 
 125   15:30   0.61   42.3    67   13.3   357     25.0    710.4 
 125   15:40   0.59   42.2    68   14.1    22     27.1    710.5 
 125   15:50   0.57   43.2    64   11.9   320     25.5    710.5 
 125   16:00   0.52   43.3    62   14.9   342     26.4    710.5 
 125   16:10   0.47   43.0    63   14.3     3     29.6    710.5 
 125   16:20   0.43   42.9    64   12.6     3     19.1    710.6 
 125   16:30   0.21   43.0    64   11.0   340     20.7    710.7 
 125   16:40   0.20   42.0    66   14.6   339     24.6    710.7 
 125   16:50   0.33   43.0    64   11.2   346     22.8    710.8 
 125   17:00   0.21   42.9    64   13.3   322     22.5    710.8 
 125   17:10   0.27   43.3    63   15.4   332     24.6    710.7 
 125   17:20   0.14   43.0    64   11.8   337     18.0    710.8 
 125   17:30   0.09   42.3    65   13.7   336     19.5    710.8 
 125   17:40   0.03   42.0    66   16.9   327     25.1    710.8 
 125   17:50   0.14   42.5    65   13.9   319     22.5    710.9 
 125   18:00   0.14   42.8    65   13.1   316     20.2    710.9 
 125   18:10   0.10   42.7    64   16.9   323     23.9    710.9 
 125   18:20   0.02   42.1    66   14.8   319     23.1    710.9 
 125   18:30   0.01   41.8    66   17.7   322     25.7    710.9 
 125   18:40   0.01   41.7    66   16.1   323     26.2    711.0 
 125   18:50   0.01   41.3    70   18.3   326     30.2    711.0 
 125   19:00   0.00   41.1    74   15.2   320     21.0    711.1 
 125   19:10   0.00   40.7    77   17.0   322     27.9    711.1 
 125   19:20   0.00   40.7    77   19.2   315     25.6    711.2 
 125   19:30   0.00   40.9    73   19.2   321     27.5    711.2 
 125   19:40   0.00   41.3    68   20.5   320     31.9    711.3 
 125   19:50   0.00   41.9    61   20.5   324     29.3    711.4 
 125   20:00   0.00   42.6    57   21.9   321     34.4    711.6 
 125   20:10   0.00   43.0    56   21.5   322     31.5    711.7 
 125   20:20   0.00   42.5    61   17.1   321     25.1    711.9 
 125   20:30   0.00   42.4    60   19.2   327     28.9    712.1 
 125   20:40   0.00   42.7    57   19.0   348     30.1    712.2 
 125   20:50   0.00   42.7    57   20.5   332     30.1    712.2 
 125   21:00   0.00   42.7    57   20.3   331     29.2    712.4 
 125   21:10   0.00   42.6    58   18.6   334     24.5    712.5 
 125   21:20   0.00   42.3    58   18.0   329     25.3    712.6 
 125   21:30   0.00   42.3    57   19.2   325     30.3    712.6 
 125   21:40   0.00   42.4    55   20.8   330     30.1    712.6 
 125   21:50   0.00   42.4    56   18.6   330     25.6    712.8 
 125   22:00   0.00   42.1    57   17.2   344     25.7    712.9 
 125   22:10   0.00   41.9    58   16.1   346     23.4    713.0 
 125   22:20   0.00   41.7    58   19.0   348     26.8    713.0 
 125   22:30   0.00   41.4    59   16.3   342     24.6    713.2 
 125   22:40   0.00   41.1    60   17.0   347     24.0    713.2 
 125   22:50   0.00   41.3    60   22.1   349     28.9    713.1 
 125   23:00   0.00   41.1    60   18.9   337     25.4    713.2 
 125   23:10   0.00   40.9    60   18.3   355     25.0    713.3 
 125   23:20   0.00   41.1    59   19.5   344     25.1    713.3 
 125   23:30   0.00   40.8    60   19.0   338     30.5    713.4 
 125   23:40   0.00   40.7    60   18.6   330     26.7    713.5 
 125   23:50   0.00   41.0    58   19.6   331     25.7    713.4 
 126    0:00   0.00   40.8    59   18.1   338     22.8    713.5 
 126    0:10   0.00   40.7    60   18.8   330     26.7    713.5 
 126    0:20   0.00   40.8    59   19.8   330     25.1    713.5 
 126    0:30   0.00   40.8    58   20.2   330     27.5    713.5 
 126    0:40   0.00   40.9    59   19.3   328     25.8    713.6 
 126    0:50   0.00   40.7    60   18.1   329     25.3    713.6 
 126    1:00   0.00   40.7    61   19.0   326     23.9    713.7 
 126    1:10   0.00   40.7    61   20.0   328     24.3    713.7 
 126    1:20   0.00   40.6    61   20.6   330     28.1    713.7 
 126    1:30   0.00   40.4    63   20.1   328     24.5    713.8 
 126    1:40   0.00   40.2    62   19.3   325     25.8    713.7 
 126    1:50   0.00   40.2    62   19.6   327     24.7    713.8 
 126    2:00   0.00   40.1    61   19.5   327     23.1    713.8 
 126    2:10   0.00   40.1    61   18.5   329     21.7    713.9 
 126    2:20   0.00   40.1    60   18.9   331     25.1    714.0 
 126    2:30   0.00   40.3    56   16.9   334     21.3    714.1 
 126    2:40   0.00   40.4    54   16.0   342     20.9    714.2 
 126    2:50   0.00   40.0    56   15.4   333     18.8    714.2 
 126    3:00   0.00   40.1    56   17.6   330     22.4    714.3 
 126    3:10   0.00   40.3    53   14.8   334     22.1    714.4 
 126    3:20   0.00   40.0    56   15.9   347     20.3    714.4 
 126    3:30   0.00   39.8    58   17.6   357     24.5    714.4 
 126    3:40   0.00   39.6    60   18.9   355     28.8    714.4 
 126    3:50   0.00   39.6    61   19.1   356     23.9    714.5 
 126    4:00   0.00   39.4    62   18.4     3     25.3    714.6 
 126    4:10   0.00   39.2    63   18.2   349     23.8    714.7 
 126    4:20   0.00   39.0    65   18.4   347     23.4    714.7 
 126    4:30   0.00   38.7    65   16.7   337     20.5    714.8 
 126    4:40   0.00   39.0    63   19.9   332     24.0    714.9 
 126    4:50   0.00   39.0    63   19.7   333     23.6    714.9 
 126    5:00   0.01   39.0    63   18.6   334     24.0    715.1 
 126    5:10   0.01   39.1    63   16.1   332     22.7    715.2 
 126    5:20   0.03   39.4    62   14.7   330     19.6    715.3 
 126    5:30   0.05   39.9    61   13.8   345     17.4    715.4 
 126    5:40   0.07   40.1    61   18.2    12     25.7    715.5 
 126    5:50   0.11   40.1    62   17.7     5     23.4    715.6 
 126    6:00   0.13   40.3    62   16.1   355     22.5    715.7 
 126    6:10   0.16   40.6    61   18.3    10     23.9    715.8 
 126    6:20   0.19   40.9    60   19.4    18     26.3    715.9 
 126    6:30   0.21   41.1    61   16.4    25     23.1    716.0 
 126    6:40   0.24   41.8    60   14.4    34     23.6    716.1 
 126    6:50   0.27   41.9    62   13.3    30     22.4    716.2 
 126    7:00   0.30   42.4    61   10.9    30     17.1    716.3 
 126    7:10   0.33   42.7    63   10.3    40     16.7    716.3 
 126    7:20   0.36   42.7    62   10.3    16     17.8    716.4 
 126    7:30   0.39   42.7    60    9.9     8     14.5    716.4 
 126    7:40   0.42   43.2    58    9.9   360     13.9    716.5 
 126    7:50   0.45   43.6    58    7.9     2     12.3    716.6 
 126    8:00   0.47   44.4    57    6.7    10     14.1    716.6 
 126    8:10   0.51   45.0    58    5.2    10     10.1    716.7 
 126    8:20   0.53   44.7    69    4.4    17      9.2    716.7 
 126    8:30   0.56   44.2    62    8.4   335     14.4    716.7 
 126    8:40   0.59   44.6    59    9.0   344     14.9    716.8 
 126    8:50   0.62   44.1    63    8.8     5     16.0    716.9 
 126    9:00   0.62   44.2    64    8.9     8     16.0    716.9 
 126    9:10   0.60   43.9    67    7.5    22     13.4    717.0 
 126    9:20   0.60   44.7    65    6.4    27     15.7    717.1 
 126    9:30   0.69   43.6    72    8.8    18     14.9    717.2 
 126    9:40   0.59   44.0    68    9.7    25     15.9    717.3 
 126    9:50   0.73   44.2    67   10.4    26     16.9    717.4 
 126   10:00   0.69   45.3    58    7.3    36     14.1    717.5 
 126   10:10   0.77   44.4    61    8.6    14     15.3    717.6 
 126   10:20   0.79   45.0    54    6.2     4     14.8    717.6 
 126   10:30   0.80   46.0    51    5.6    31     13.5    717.6 
 126   10:40   0.81   45.1    55   10.0    28     16.4    717.7 
 126   10:50   0.82   45.8    50    6.3    34     13.7    717.8 
 126   11:00   0.83   46.2    46   10.2    38     19.3    717.8 
 126   11:10   0.84   46.6    40    9.4    30     23.1    717.8 
 126   11:20   0.84   47.9    44    4.8    61      8.0    717.8 

Return to Slide Mountain graphs page.


Western Regional Climate Center,wrcc@dri.edu